Time,TemperatureF,DewpointF,PressureIn,WindDirection,WindDirectionDegrees,WindSpeedMPH,WindSpeedGustMPH,Humidity,HourlyPrecipIn,Conditions,Clouds,dailyrainin,SoftwareType,DateUTC
2013-08-31 00:01:00,71.8,70.3,29.74,SW,220,1.0,5.0,95,0.00,,,0.00,VWS V14.01,2013-08-31 04:01:00,
2013-08-31 00:11:00,71.8,70.3,29.74,South,175,1.0,4.0,95,0.00,,,0.00,VWS V14.01,2013-08-31 04:11:00,
2013-08-31 00:21:00,71.8,70.3,29.74,SSW,209,0.0,5.0,95,0.00,,,0.00,VWS V14.01,2013-08-31 04:21:00,
2013-08-31 00:31:00,71.8,70.0,29.74,SW,229,0.0,5.0,94,0.00,,,0.00,VWS V14.01,2013-08-31 04:31:00,
2013-08-31 00:41:00,71.8,70.0,29.74,North,11,2.0,4.0,94,0.00,,,0.00,VWS V14.01,2013-08-31 04:41:00,
2013-08-31 00:51:00,71.9,70.1,29.73,WSW,241,1.0,4.0,94,0.00,,,0.00,VWS V14.01,2013-08-31 04:51:00,
2013-08-31 01:01:00,71.9,70.1,29.73,SW,232,1.0,5.0,94,0.00,,,0.00,VWS V14.01,2013-08-31 05:01:00,
2013-08-31 01:11:00,71.9,70.1,29.73,NNE,29,0.0,4.0,94,0.00,,,0.00,VWS V14.01,2013-08-31 05:11:00,
2013-08-31 01:21:00,71.9,70.1,29.73,WNW,293,1.0,6.0,94,0.00,,,0.00,VWS V14.01,2013-08-31 05:21:00,
2013-08-31 01:31:00,71.9,70.1,29.72,SW,234,1.0,5.0,94,0.00,,,0.00,VWS V14.01,2013-08-31 05:31:00,
2013-08-31 01:41:00,71.9,70.1,29.72,West,276,1.0,4.0,94,0.00,,,0.00,VWS V14.01,2013-08-31 05:41:00,
2013-08-31 01:51:00,71.9,70.1,29.72,SW,229,2.0,5.0,94,0.00,,,0.00,VWS V14.01,2013-08-31 05:51:00,
2013-08-31 02:01:00,71.9,70.1,29.72,WSW,249,1.0,4.0,94,0.00,,,0.00,VWS V14.01,2013-08-31 06:01:00,
2013-08-31 02:11:00,71.9,70.1,29.72,NE,41,2.0,4.0,94,0.00,,,0.00,VWS V14.01,2013-08-31 06:11:00,
2013-08-31 02:21:00,71.9,70.1,29.73,North,5,1.0,4.0,94,0.00,,,0.00,VWS V14.01,2013-08-31 06:21:00,
2013-08-31 02:31:00,71.9,70.1,29.72,WSW,238,1.0,4.0,94,0.00,,,0.00,VWS V14.01,2013-08-31 06:31:00,
2013-08-31 02:41:00,71.9,70.1,29.72,NE,55,0.0,4.0,94,0.00,,,0.00,VWS V14.01,2013-08-31 06:41:00,
2013-08-31 02:51:00,71.8,70.0,29.72,SSW,202,1.0,3.0,94,0.00,,,0.00,VWS V14.01,2013-08-31 06:51:00,
2013-08-31 03:01:00,71.7,69.9,29.72,SSW,197,0.0,4.0,94,0.00,,,0.00,VWS V14.01,2013-08-31 07:01:00,
2013-08-31 03:11:00,71.6,69.8,29.72,SW,218,0.0,5.0,94,0.00,,,0.00,VWS V14.01,2013-08-31 07:11:00,
2013-08-31 03:21:00,71.6,70.1,29.72,West,279,2.0,4.0,95,0.00,,,0.00,VWS V14.01,2013-08-31 07:21:00,
2013-08-31 03:31:00,71.6,70.1,29.72,West,261,1.0,4.0,95,0.00,,,0.00,VWS V14.01,2013-08-31 07:31:00,
2013-08-31 03:41:00,71.6,69.8,29.72,SW,231,0.0,5.0,94,0.00,,,0.00,VWS V14.01,2013-08-31 07:41:00,
2013-08-31 03:51:00,71.6,69.8,29.71,West,270,0.0,4.0,94,0.00,,,0.00,VWS V14.01,2013-08-31 07:51:00,
2013-08-31 04:01:00,71.6,70.1,29.71,SSW,213,5.0,9.0,95,0.00,,,0.00,VWS V14.01,2013-08-31 08:01:00,
2013-08-31 04:11:00,71.7,69.9,29.71,WSW,257,0.0,5.0,94,0.00,,,0.00,VWS V14.01,2013-08-31 08:11:00,
2013-08-31 04:21:00,71.7,69.9,29.72,West,272,3.0,4.0,94,0.00,,,0.00,VWS V14.01,2013-08-31 08:21:00,
2013-08-31 04:31:00,71.7,69.9,29.72,SW,227,1.0,6.0,94,0.00,,,0.00,VWS V14.01,2013-08-31 08:31:00,
2013-08-31 04:41:00,71.6,69.8,29.72,SW,234,2.0,4.0,94,0.00,,,0.00,VWS V14.01,2013-08-31 08:41:00,
2013-08-31 04:51:00,71.5,69.7,29.71,SW,234,2.0,4.0,94,0.00,,,0.00,VWS V14.01,2013-08-31 08:51:00,
2013-08-31 05:01:00,71.5,69.7,29.72,SW,220,0.0,5.0,94,0.00,,,0.00,VWS V14.01,2013-08-31 09:01:00,
2013-08-31 05:11:00,71.5,69.7,29.72,West,259,2.0,7.0,94,0.00,,,0.00,VWS V14.01,2013-08-31 09:11:00,
2013-08-31 05:21:00,71.5,69.7,29.72,SW,216,0.0,4.0,94,0.00,,,0.00,VWS V14.01,2013-08-31 09:21:00,
2013-08-31 05:31:00,71.5,69.7,29.72,South,180,2.0,3.0,94,0.00,,,0.00,VWS V14.01,2013-08-31 09:31:00,
2013-08-31 05:41:00,71.4,69.6,29.72,NNW,348,2.0,3.0,94,0.00,,,0.00,VWS V14.01,2013-08-31 09:41:00,
2013-08-31 05:51:00,71.3,69.5,29.72,SW,222,0.0,5.0,94,0.00,,,0.00,VWS V14.01,2013-08-31 09:51:00,
2013-08-31 06:01:00,71.3,69.8,29.72,West,265,1.0,5.0,95,0.00,,,0.00,VWS V14.01,2013-08-31 10:01:00,
2013-08-31 06:11:00,71.3,69.8,29.72,SSW,195,2.0,2.0,95,0.00,,,0.00,VWS V14.01,2013-08-31 10:11:00,
2013-08-31 06:21:00,71.2,69.7,29.72,SSW,211,2.0,3.0,95,0.00,,,0.00,VWS V14.01,2013-08-31 10:21:00,
2013-08-31 06:31:00,71.1,69.6,29.72,South,187,1.0,4.0,95,0.00,,,0.00,VWS V14.01,2013-08-31 10:31:00,
2013-08-31 06:41:00,71.2,69.7,29.72,WSW,249,1.0,4.0,95,0.00,,,0.00,VWS V14.01,2013-08-31 10:41:00,
2013-08-31 06:51:00,71.3,69.8,29.72,WSW,249,1.0,6.0,95,0.00,,,0.00,VWS V14.01,2013-08-31 10:51:00,
2013-08-31 07:01:00,71.4,69.9,29.72,WSW,242,1.0,5.0,95,0.00,,,0.00,VWS V14.01,2013-08-31 11:01:00,
2013-08-31 07:11:00,71.5,69.7,29.72,WSW,239,2.0,6.0,94,0.00,,,0.00,VWS V14.01,2013-08-31 11:11:00,
2013-08-31 07:21:00,71.7,69.9,29.72,WSW,252,1.0,5.0,94,0.00,,,0.00,VWS V14.01,2013-08-31 11:21:00,
2013-08-31 07:31:00,71.7,69.9,29.72,WSW,240,1.0,4.0,94,0.00,,,0.00,VWS V14.01,2013-08-31 11:31:00,
2013-08-31 07:41:00,71.8,70.0,29.72,WSW,243,2.0,6.0,94,0.00,,,0.00,VWS V14.01,2013-08-31 11:41:00,
2013-08-31 07:51:00,71.9,70.1,29.72,South,178,2.0,4.0,94,0.00,,,0.00,VWS V14.01,2013-08-31 11:51:00,
2013-08-31 08:01:00,71.9,70.1,29.72,WSW,242,1.0,4.0,94,0.00,,,0.00,VWS V14.01,2013-08-31 12:01:00,
2013-08-31 08:11:00,71.9,69.8,29.72,WSW,250,0.0,6.0,93,0.00,,,0.00,VWS V14.01,2013-08-31 12:11:00,
2013-08-31 08:21:00,72.0,69.9,29.72,West,259,0.0,3.0,93,0.00,,,0.00,VWS V14.01,2013-08-31 12:21:00,
2013-08-31 08:31:00,72.1,70.0,29.72,WSW,257,0.0,4.0,93,0.00,,,0.00,VWS V14.01,2013-08-31 12:31:00,
2013-08-31 08:41:00,72.1,70.0,29.72,WNW,296,0.0,5.0,93,0.00,,,0.00,VWS V14.01,2013-08-31 12:41:00,
2013-08-31 08:51:00,72.2,70.1,29.72,SSW,209,2.0,5.0,93,0.00,,,0.00,VWS V14.01,2013-08-31 12:51:00,
2013-08-31 09:01:00,72.3,69.8,29.72,WSW,238,0.0,6.0,92,0.00,,,0.00,VWS V14.01,2013-08-31 13:01:00,
2013-08-31 09:11:00,72.6,70.2,29.72,SW,228,3.0,6.0,92,0.00,,,0.00,VWS V14.01,2013-08-31 13:11:00,
2013-08-31 09:21:00,72.7,70.2,29.73,SW,230,2.0,7.0,92,0.00,,,0.00,VWS V14.01,2013-08-31 13:21:00,
2013-08-31 09:31:00,72.7,69.9,29.73,WSW,254,0.0,6.0,91,0.00,,,0.00,VWS V14.01,2013-08-31 13:31:00,
2013-08-31 09:41:00,72.7,69.9,29.73,SW,236,0.0,6.0,91,0.00,,,0.00,VWS V14.01,2013-08-31 13:41:00,
2013-08-31 09:51:00,72.8,70.0,29.74,SSW,194,2.0,6.0,91,0.00,,,0.00,VWS V14.01,2013-08-31 13:51:00,
2013-08-31 10:01:00,73.0,70.2,29.74,SW,219,1.0,5.0,91,0.00,,,0.00,VWS V14.01,2013-08-31 14:01:00,
2013-08-31 10:11:00,73.4,70.6,29.74,WSW,245,2.0,4.0,91,0.00,,,0.00,VWS V14.01,2013-08-31 14:11:00,
2013-08-31 10:21:00,73.9,70.8,29.73,SW,217,1.0,6.0,90,0.00,,,0.00,VWS V14.01,2013-08-31 14:21:00,
2013-08-31 10:31:00,74.3,70.8,29.73,North,360,2.0,6.0,89,0.00,,,0.00,VWS V14.01,2013-08-31 14:31:00,
2013-08-31 10:41:00,74.5,71.1,29.73,WSW,254,1.0,5.0,89,0.00,,,0.00,VWS V14.01,2013-08-31 14:41:00,
2013-08-31 10:51:00,74.8,71.3,29.73,SW,225,1.0,4.0,89,0.00,,,0.00,VWS V14.01,2013-08-31 14:51:00,
2013-08-31 11:01:00,75.1,72.0,29.72,WSW,258,2.0,4.0,90,0.00,,,0.00,VWS V14.01,2013-08-31 15:01:00,
2013-08-31 11:11:00,75.4,71.6,29.72,SW,223,0.0,6.0,88,0.00,,,0.00,VWS V14.01,2013-08-31 15:11:00,
2013-08-31 11:21:00,76.0,71.9,29.72,SW,234,2.0,5.0,87,0.00,,,0.00,VWS V14.01,2013-08-31 15:21:00,
2013-08-31 11:31:00,76.2,72.1,29.72,NNE,23,1.0,7.0,87,0.00,,,0.00,VWS V14.01,2013-08-31 15:31:00,
2013-08-31 11:41:00,76.6,72.1,29.72,SW,225,2.0,4.0,86,0.00,,,0.00,VWS V14.01,2013-08-31 15:41:00,
2013-08-31 11:51:00,76.9,73.1,29.72,SSW,201,1.0,7.0,88,0.00,,,0.00,VWS V14.01,2013-08-31 15:51:00,
2013-08-31 12:01:00,77.5,73.3,29.72,WNW,303,1.0,4.0,87,0.00,,,0.00,VWS V14.01,2013-08-31 16:01:00,
2013-08-31 12:11:00,77.8,72.2,29.72,WNW,282,2.0,4.0,83,0.00,,,0.00,VWS V14.01,2013-08-31 16:11:00,
2013-08-31 12:21:00,78.1,72.5,29.71,WSW,243,2.0,5.0,83,0.00,,,0.00,VWS V14.01,2013-08-31 16:21:00,
2013-08-31 12:31:00,78.2,72.3,29.71,SW,233,0.0,4.0,82,0.00,,,0.00,VWS V14.01,2013-08-31 16:31:00,
2013-08-31 12:41:00,78.1,72.5,29.71,WNW,287,1.0,4.0,83,0.00,,,0.00,VWS V14.01,2013-08-31 16:41:00,
2013-08-31 12:51:00,78.0,72.4,29.71,SSW,213,1.0,10.0,83,0.00,,,0.00,VWS V14.01,2013-08-31 16:51:00,
2013-08-31 13:01:00,77.4,72.2,29.72,West,259,0.0,6.0,84,0.00,,,0.00,VWS V14.01,2013-08-31 17:01:00,
2013-08-31 13:11:00,77.1,72.2,29.72,West,271,0.0,7.0,85,0.00,,,0.00,VWS V14.01,2013-08-31 17:11:00,
2013-08-31 13:21:00,77.0,72.5,29.71,West,263,1.0,10.0,86,0.00,,,0.00,VWS V14.01,2013-08-31 17:21:00,
2013-08-31 13:31:00,76.9,72.7,29.71,SW,220,2.0,5.0,87,0.00,,,0.00,VWS V14.01,2013-08-31 17:31:00,
2013-08-31 13:41:00,76.7,72.5,29.71,NW,310,1.0,10.0,87,0.00,,,0.00,VWS V14.01,2013-08-31 17:41:00,
2013-08-31 13:51:00,77.0,73.2,29.71,NNE,15,2.0,3.0,88,0.00,,,0.00,VWS V14.01,2013-08-31 17:51:00,
2013-08-31 14:01:00,77.0,72.8,29.70,NNE,17,3.0,6.0,87,0.00,,,0.00,VWS V14.01,2013-08-31 18:01:00,
2013-08-31 14:11:00,77.3,72.8,29.70,ENE,62,2.0,4.0,86,0.00,,,0.00,VWS V14.01,2013-08-31 18:11:00,
2013-08-31 14:21:00,77.7,73.2,29.70,WSW,248,3.0,7.0,86,0.00,,,0.00,VWS V14.01,2013-08-31 18:21:00,
2013-08-31 14:31:00,78.2,73.7,29.70,WSW,243,1.0,5.0,86,0.00,,,0.00,VWS V14.01,2013-08-31 18:31:00,
2013-08-31 14:41:00,78.4,73.5,29.70,WSW,241,2.0,4.0,85,0.00,,,0.00,VWS V14.01,2013-08-31 18:41:00,
2013-08-31 14:51:00,78.3,73.4,29.70,WNW,288,1.0,7.0,85,0.00,,,0.00,VWS V14.01,2013-08-31 18:51:00,
2013-08-31 15:01:00,78.3,73.8,29.69,SW,230,2.0,4.0,86,0.00,,,0.00,VWS V14.01,2013-08-31 19:01:00,
2013-08-31 15:11:00,78.8,73.6,29.69,West,265,6.0,6.0,84,0.00,,,0.00,VWS V14.01,2013-08-31 19:11:00,
2013-08-31 15:21:00,78.9,74.0,29.70,West,274,1.0,6.0,85,0.00,,,0.00,VWS V14.01,2013-08-31 19:21:00,
2013-08-31 15:31:00,79.2,73.6,29.70,SW,227,1.0,5.0,83,0.00,,,0.00,VWS V14.01,2013-08-31 19:31:00,
2013-08-31 15:41:00,79.3,73.7,29.70,West,275,1.0,4.0,83,0.00,,,0.00,VWS V14.01,2013-08-31 19:41:00,
2013-08-31 15:51:00,79.5,73.9,29.69,East,88,1.0,5.0,83,0.00,,,0.00,VWS V14.01,2013-08-31 19:51:00,
2013-08-31 16:01:00,79.7,73.7,29.69,WSW,246,2.0,6.0,82,0.00,,,0.00,VWS V14.01,2013-08-31 20:01:00,
2013-08-31 16:11:00,79.7,73.4,29.69,WSW,238,2.0,7.0,81,0.00,,,0.00,VWS V14.01,2013-08-31 20:11:00,
2013-08-31 16:21:00,79.6,73.6,29.69,NE,40,2.0,10.0,82,0.00,,,0.00,VWS V14.01,2013-08-31 20:21:00,
2013-08-31 16:31:00,79.8,73.8,29.69,NNE,12,4.0,6.0,82,0.00,,,0.00,VWS V14.01,2013-08-31 20:31:00,
2013-08-31 16:41:00,79.4,73.4,29.69,West,280,4.0,7.0,82,0.00,,,0.00,VWS V14.01,2013-08-31 20:41:00,
2013-08-31 16:51:00,78.7,72.8,29.68,NNE,21,1.0,5.0,82,0.00,,,0.00,VWS V14.01,2013-08-31 20:51:00,
2013-08-31 17:01:00,78.4,72.8,29.68,WSW,239,3.0,5.0,83,0.00,,,0.00,VWS V14.01,2013-08-31 21:01:00,
2013-08-31 17:11:00,78.1,72.9,29.68,WNW,296,1.0,5.0,84,0.00,,,0.00,VWS V14.01,2013-08-31 21:11:00,
2013-08-31 17:21:00,77.8,72.6,29.68,WSW,253,2.0,5.0,84,0.00,,,0.00,VWS V14.01,2013-08-31 21:21:00,
2013-08-31 17:31:00,77.4,72.5,29.68,SW,232,2.0,6.0,85,0.00,,,0.00,VWS V14.01,2013-08-31 21:31:00,
2013-08-31 17:41:00,77.0,72.2,29.68,SW,219,2.0,4.0,85,0.00,,,0.00,VWS V14.01,2013-08-31 21:41:00,
2013-08-31 17:51:00,76.8,72.3,29.68,NE,34,1.0,5.0,86,0.00,,,0.00,VWS V14.01,2013-08-31 21:51:00,
2013-08-31 18:01:00,76.6,72.4,29.69,West,259,1.0,4.0,87,0.00,,,0.00,VWS V14.01,2013-08-31 22:01:00,
2013-08-31 18:11:00,76.6,72.4,29.69,West,274,2.0,4.0,87,0.00,,,0.00,VWS V14.01,2013-08-31 22:11:00,
2013-08-31 18:21:00,76.7,72.5,29.68,WNW,290,1.0,5.0,87,0.00,,,0.00,VWS V14.01,2013-08-31 22:21:00,
2013-08-31 18:31:00,76.4,72.2,29.67,NNW,348,3.0,5.0,87,0.00,,,0.00,VWS V14.01,2013-08-31 22:31:00,
2013-08-31 18:41:00,75.9,71.8,29.67,WSW,246,1.0,6.0,87,0.00,,,0.00,VWS V14.01,2013-08-31 22:41:00,
2013-08-31 18:51:00,75.5,71.7,29.68,WSW,252,1.0,5.0,88,0.00,,,0.00,VWS V14.01,2013-08-31 22:51:00,
2013-08-31 19:01:00,75.2,71.7,29.69,North,11,1.0,3.0,89,0.00,,,0.00,VWS V14.01,2013-08-31 23:01:00,
2013-08-31 19:11:00,74.9,71.8,29.69,SW,217,2.0,3.0,90,0.00,,,0.00,VWS V14.01,2013-08-31 23:11:00,
2013-08-31 19:21:00,74.7,71.6,29.69,WSW,247,1.0,3.0,90,0.00,,,0.00,VWS V14.01,2013-08-31 23:21:00,
2013-08-31 19:31:00,74.4,71.6,29.69,SW,217,0.0,4.0,91,0.00,,,0.00,VWS V14.01,2013-08-31 23:31:00,
2013-08-31 19:41:00,74.3,71.5,29.69,SW,226,0.0,4.0,91,0.00,,,0.00,VWS V14.01,2013-08-31 23:41:00,
2013-08-31 19:51:00,74.3,71.5,29.69,NNW,346,1.0,3.0,91,0.00,,,0.00,VWS V14.01,2013-08-31 23:51:00,
2013-08-31 20:01:00,74.2,71.4,29.70,SW,221,0.0,2.0,91,0.00,,,0.00,VWS V14.01,2013-09-01 00:01:00,
2013-08-31 20:11:00,74.1,71.6,29.70,NW,316,1.0,4.0,92,0.00,,,0.00,VWS V14.01,2013-09-01 00:11:00,
2013-08-31 20:21:00,74.1,71.6,29.69,SW,223,2.0,6.0,92,0.00,,,0.00,VWS V14.01,2013-09-01 00:21:00,
2013-08-31 20:31:00,74.1,71.3,29.69,SSW,200,5.0,5.0,91,0.00,,,0.00,VWS V14.01,2013-09-01 00:31:00,
2013-08-31 20:41:00,74.0,71.2,29.69,West,273,1.0,5.0,91,0.00,,,0.00,VWS V14.01,2013-09-01 00:41:00,
2013-08-31 20:51:00,74.0,71.2,29.70,NNE,29,1.0,4.0,91,0.00,,,0.00,VWS V14.01,2013-09-01 00:51:00,
2013-08-31 21:01:00,74.0,71.2,29.70,WSW,258,1.0,4.0,91,0.00,,,0.00,VWS V14.01,2013-09-01 01:01:00,
2013-08-31 21:11:00,74.0,71.2,29.70,WNW,301,1.0,5.0,91,0.00,,,0.00,VWS V14.01,2013-09-01 01:11:00,
2013-08-31 21:21:00,74.0,71.2,29.70,WSW,255,1.0,4.0,91,0.00,,,0.00,VWS V14.01,2013-09-01 01:21:00,
2013-08-31 21:31:00,74.0,71.2,29.70,NE,39,3.0,5.0,91,0.00,,,0.00,VWS V14.01,2013-09-01 01:31:00,
2013-08-31 21:41:00,74.0,71.2,29.70,SW,221,2.0,5.0,91,0.00,,,0.00,VWS V14.01,2013-09-01 01:41:00,
2013-08-31 21:51:00,74.0,71.2,29.71,WSW,239,1.0,3.0,91,0.00,,,0.00,VWS V14.01,2013-09-01 01:51:00,
2013-08-31 22:01:00,74.0,71.2,29.71,SW,232,2.0,4.0,91,0.00,,,0.00,VWS V14.01,2013-09-01 02:01:00,
2013-08-31 22:11:00,74.0,71.2,29.71,West,275,2.0,5.0,91,0.00,,,0.00,VWS V14.01,2013-09-01 02:11:00,
2013-08-31 22:21:00,73.9,71.1,29.71,WSW,248,1.0,5.0,91,0.00,,,0.00,VWS V14.01,2013-09-01 02:21:00,
2013-08-31 22:31:00,73.8,71.3,29.72,WSW,255,2.0,4.0,92,0.00,,,0.00,VWS V14.01,2013-09-01 02:31:00,
2013-08-31 22:41:00,73.8,71.3,29.72,NE,37,4.0,5.0,92,0.00,,,0.00,VWS V14.01,2013-09-01 02:41:00,
2013-08-31 22:51:00,73.8,71.7,29.72,West,271,3.0,5.0,93,0.00,,,0.00,VWS V14.01,2013-09-01 02:51:00,
2013-08-31 23:01:00,73.8,71.7,29.72,SW,222,2.0,4.0,93,0.00,,,0.00,VWS V14.01,2013-09-01 03:01:00,
2013-08-31 23:11:00,73.8,71.7,29.72,WNW,282,1.0,6.0,93,0.00,,,0.00,VWS V14.01,2013-09-01 03:11:00,
2013-08-31 23:21:00,73.9,71.8,29.72,West,263,2.0,4.0,93,0.00,,,0.00,VWS V14.01,2013-09-01 03:21:00,
2013-08-31 23:31:00,73.8,71.7,29.72,WSW,252,1.0,6.0,93,0.00,,,0.00,VWS V14.01,2013-09-01 03:31:00,
2013-08-31 23:41:00,73.9,71.8,29.72,SE,136,0.0,4.0,93,0.00,,,0.00,VWS V14.01,2013-09-01 03:41:00,
2013-08-31 23:51:00,73.9,71.8,29.72,SW,222,0.0,5.0,93,0.00,,,0.00,VWS V14.01,2013-09-01 03:51:00,